createdAt,value
2018-11-01T00:00:43.783Z,9.73
2018-11-01T00:01:43.914Z,9.7
2018-11-01T00:02:44.096Z,9.66
2018-11-01T00:03:43.752Z,9.7
2018-11-01T00:04:43.763Z,9.68
2018-11-01T00:05:43.770Z,9.68
2018-11-01T00:06:43.836Z,9.7
2018-11-01T00:07:43.822Z,9.69
2018-11-01T00:08:43.775Z,9.66
2018-11-01T00:09:43.805Z,9.66
2018-11-01T00:10:43.765Z,9.63
2018-11-01T00:11:44.190Z,9.62
2018-11-01T00:12:43.746Z,9.63
2018-11-01T00:13:43.763Z,9.62
2018-11-01T00:14:43.983Z,9.61
2018-11-01T00:15:43.769Z,9.62
2018-11-01T00:16:43.769Z,9.61
2018-11-01T00:17:43.733Z,9.65
2018-11-01T00:18:43.773Z,9.62
2018-11-01T00:19:43.720Z,9.59
2018-11-01T00:20:43.738Z,9.61
2018-11-01T00:21:43.817Z,9.61
2018-11-01T00:22:43.733Z,9.61
2018-11-01T00:23:43.737Z,9.61
2018-11-01T00:24:43.757Z,9.61
2018-11-01T00:25:43.732Z,9.62
2018-11-01T00:26:43.766Z,9.63
2018-11-01T00:27:43.765Z,9.61
2018-11-01T00:28:43.732Z,9.61
2018-11-01T00:29:43.710Z,9.61
2018-11-01T00:30:43.726Z,9.61
2018-11-01T00:31:44.111Z,9.62
2018-11-01T00:32:43.799Z,9.58
2018-11-01T00:33:43.717Z,9.59
2018-11-01T00:34:43.724Z,9.58
2018-11-01T00:35:43.733Z,9.59
2018-11-01T00:36:43.733Z,9.58
2018-11-01T00:37:43.721Z,9.57
2018-11-01T00:38:43.781Z,9.57
2018-11-01T00:39:43.756Z,9.52
2018-11-01T00:40:43.699Z,9.51
2018-11-01T00:41:43.713Z,9.51
2018-11-01T00:42:43.804Z,9.54
2018-11-01T00:43:43.967Z,9.51
2018-11-01T00:44:43.718Z,9.51
2018-11-01T00:45:43.690Z,9.52
2018-11-01T00:46:43.728Z,9.52
2018-11-01T00:47:43.822Z,9.52
2018-11-01T00:48:43.720Z,9.54
2018-11-01T00:49:43.776Z,9.52
2018-11-01T00:50:43.842Z,9.54
2018-11-01T00:51:43.691Z,9.54
2018-11-01T00:52:43.762Z,9.52
2018-11-01T00:53:43.705Z,9.51
2018-11-01T00:54:43.723Z,9.51
2018-11-01T00:55:43.690Z,9.49
2018-11-01T00:56:43.846Z,9.51
2018-11-01T00:57:43.740Z,9.49
2018-11-01T00:58:43.662Z,9.49
2018-11-01T00:59:44.128Z,9.51
2018-11-01T01:00:43.960Z,9.52
2018-11-01T01:01:43.682Z,9.52
2018-11-01T01:02:43.800Z,9.48
2018-11-01T01:03:43.658Z,9.48
2018-11-01T01:04:43.692Z,9.45
2018-11-01T01:05:43.698Z,9.47
2018-11-01T01:06:43.694Z,9.48
2018-11-01T01:07:43.702Z,9.48
2018-11-01T01:08:43.718Z,9.48
2018-11-01T01:09:43.650Z,9.48
2018-11-01T01:10:43.663Z,9.48
2018-11-01T01:11:43.699Z,9.47
2018-11-01T01:12:43.673Z,9.45
2018-11-01T01:13:44.078Z,9.48
2018-11-01T01:14:43.715Z,9.48
2018-11-01T01:15:43.725Z,9.45
2018-11-01T01:16:43.669Z,9.42
2018-11-01T01:17:43.704Z,9.45
2018-11-01T01:18:43.775Z,9.45
2018-11-01T01:19:43.634Z,9.45
2018-11-01T01:20:43.684Z,9.42
2018-11-01T01:21:43.766Z,9.42
2018-11-01T01:22:43.665Z,9.42
2018-11-01T01:23:43.687Z,9.41
2018-11-01T01:24:43.653Z,9.41
2018-11-01T01:25:43.722Z,9.4
2018-11-01T01:26:43.655Z,9.38
2018-11-01T01:27:43.650Z,9.41
2018-11-01T01:28:43.654Z,9.4
2018-11-01T01:29:44.088Z,9.41
2018-11-01T01:30:43.661Z,9.41
2018-11-01T01:31:43.661Z,9.42
2018-11-01T01:32:43.727Z,9.38
2018-11-01T01:33:43.619Z,9.37
2018-11-01T01:34:43.906Z,9.34
2018-11-01T01:35:43.660Z,9.34
2018-11-01T01:36:43.726Z,9.3
2018-11-01T01:37:43.631Z,9.31
2018-11-01T01:38:44.151Z,9.29
2018-11-01T01:39:43.648Z,9.29
2018-11-01T01:40:43.626Z,9.29
2018-11-01T01:41:43.640Z,9.27
2018-11-01T01:42:43.681Z,9.29
2018-11-01T01:43:43.636Z,9.29
2018-11-01T01:44:43.618Z,9.27
2018-11-01T01:45:43.727Z,9.27
2018-11-01T01:46:43.657Z,9.26
2018-11-01T01:47:43.640Z,9.24
2018-11-01T01:48:43.665Z,9.21
2018-11-01T01:49:43.595Z,9.23
2018-11-01T01:50:44.117Z,9.24
2018-11-01T01:51:44.025Z,9.24
2018-11-01T01:52:43.592Z,9.24
2018-11-01T01:53:43.619Z,9.21
2018-11-01T01:54:43.654Z,9.2
2018-11-01T01:55:43.638Z,9.2
2018-11-01T01:56:43.596Z,9.21
2018-11-01T01:57:43.680Z,9.2
2018-11-01T01:58:43.708Z,9.2
2018-11-01T01:59:43.587Z,9.2
2018-11-01T02:00:44.215Z,9.2
2018-11-01T02:01:43.981Z,9.2
2018-11-01T02:02:43.605Z,9.21
2018-11-01T02:03:43.612Z,9.21
2018-11-01T02:04:43.599Z,9.23
2018-11-01T02:05:43.586Z,9.23
2018-11-01T02:06:43.590Z,9.21
2018-11-01T02:07:43.674Z,9.19
2018-11-01T02:08:43.626Z,9.17
2018-11-01T02:09:43.572Z,9.19
2018-11-01T02:10:43.580Z,9.2
2018-11-01T02:11:43.967Z,9.19
2018-11-01T02:12:43.585Z,9.21
2018-11-01T02:13:43.580Z,9.21
2018-11-01T02:14:43.679Z,9.21
2018-11-01T02:15:43.661Z,9.16
2018-11-01T02:16:43.713Z,9.16
2018-11-01T02:17:43.605Z,9.16
2018-11-01T02:18:43.549Z,9.19
2018-11-01T02:19:43.826Z,9.17
2018-11-01T02:20:43.585Z,9.16
2018-11-01T02:21:43.567Z,9.13
2018-11-01T02:22:43.641Z,9.13
2018-11-01T02:23:43.582Z,9.11
2018-11-01T02:24:43.713Z,9.13
2018-11-01T02:25:43.569Z,9.09
2018-11-01T02:26:43.548Z,9.09
2018-11-01T02:27:43.866Z,9.09
2018-11-01T02:28:43.608Z,9.07
2018-11-01T02:29:43.581Z,9.04
2018-11-01T02:30:43.562Z,9.06
2018-11-01T02:31:43.684Z,9.04
2018-11-01T02:32:43.600Z,9.03
2018-11-01T02:33:43.609Z,9
2018-11-01T02:34:43.549Z,9
2018-11-01T02:35:43.565Z,8.99
2018-11-01T02:36:43.523Z,8.96
2018-11-01T02:37:43.847Z,8.96
2018-11-01T02:38:43.906Z,8.96
2018-11-01T02:39:43.552Z,8.92
2018-11-01T02:40:43.577Z,8.91
2018-11-01T02:41:43.517Z,8.86
2018-11-01T02:42:43.541Z,8.88
2018-11-01T02:43:43.748Z,8.86
2018-11-01T02:44:43.654Z,8.83
2018-11-01T02:45:43.524Z,8.83
2018-11-01T02:46:43.702Z,8.83
2018-11-01T02:47:44.106Z,8.82
2018-11-01T02:48:43.644Z,8.78
2018-11-01T02:49:43.514Z,8.68
2018-11-01T02:50:43.526Z,8.44
2018-11-01T02:51:43.527Z,8.36
2018-11-01T02:52:43.832Z,8.26
2018-11-01T02:53:43.635Z,8.27
2018-11-01T02:54:43.508Z,8.23
2018-11-01T02:55:43.492Z,8.26
2018-11-01T02:56:43.519Z,8.2
2018-11-01T02:57:43.540Z,8.1
2018-11-01T02:58:43.990Z,8.12
2018-11-01T02:59:43.971Z,8.09
2018-11-01T03:00:43.495Z,8.08
2018-11-01T03:01:43.559Z,8.05
2018-11-01T03:02:43.540Z,7.92
2018-11-01T03:03:43.523Z,7.84
2018-11-01T03:04:43.512Z,7.8
2018-11-01T03:05:43.522Z,7.78
2018-11-01T03:06:43.515Z,7.64
2018-11-01T03:07:43.554Z,7.46
2018-11-01T03:08:43.503Z,7.43
2018-11-01T03:09:43.650Z,7.47
2018-11-01T03:10:43.507Z,7.48
2018-11-01T03:11:43.522Z,7.44
2018-11-01T03:12:43.549Z,7.41
2018-11-01T03:13:43.481Z,7.44
2018-11-01T03:14:43.513Z,7.36
2018-11-01T03:15:43.524Z,7.4
2018-11-01T03:16:43.547Z,7.44
2018-11-01T03:17:43.534Z,7.43
2018-11-01T03:18:43.509Z,7.48
2018-11-01T03:19:43.646Z,7.5
2018-11-01T03:20:43.511Z,7.47
2018-11-01T03:21:43.494Z,7.48
2018-11-01T03:22:43.851Z,7.48
2018-11-01T03:23:43.476Z,7.39
2018-11-01T03:24:43.633Z,7.4
2018-11-01T03:25:43.494Z,7.41
2018-11-01T03:26:43.981Z,7.41
2018-11-01T03:27:43.519Z,7.41
2018-11-01T03:28:43.790Z,7.44
2018-11-01T03:29:43.493Z,7.46
2018-11-01T03:30:43.478Z,7.46
2018-11-01T03:31:43.507Z,7.46
2018-11-01T03:32:43.492Z,7.47
2018-11-01T03:33:43.501Z,7.46
2018-11-01T03:34:43.457Z,7.47
2018-11-01T03:35:43.686Z,7.47
2018-11-01T03:36:43.636Z,7.43
2018-11-01T03:37:43.475Z,7.44
2018-11-01T03:38:43.588Z,7.39
2018-11-01T03:39:43.465Z,7.39
2018-11-01T03:40:43.462Z,7.31
2018-11-01T03:41:43.517Z,7.22
2018-11-01T03:42:43.622Z,7.11
2018-11-01T03:43:43.432Z,6.99
2018-11-01T03:44:43.442Z,6.99
2018-11-01T03:45:43.754Z,7.05
2018-11-01T03:46:43.462Z,7.06
2018-11-01T03:47:43.489Z,7.09
2018-11-01T03:48:43.456Z,7.12
2018-11-01T03:49:43.584Z,7.12
2018-11-01T03:50:43.821Z,7.16
2018-11-01T03:51:43.730Z,7.16
2018-11-01T03:52:43.503Z,7.19
2018-11-01T03:53:43.910Z,7.2
2018-11-01T03:54:43.444Z,7.2
2018-11-01T03:55:43.444Z,7.23
2018-11-01T03:56:43.473Z,7.24
2018-11-01T03:57:43.446Z,7.26
2018-11-01T03:58:43.591Z,7.29
2018-11-01T03:59:43.424Z,7.26
2018-11-01T04:00:43.420Z,7.29
2018-11-01T04:01:43.467Z,7.29
2018-11-01T04:02:43.493Z,7.3
2018-11-01T04:03:43.672Z,7.3
2018-11-01T04:04:43.433Z,7.27
2018-11-01T04:05:43.404Z,7.26
2018-11-01T04:06:43.400Z,7.23
2018-11-01T04:07:43.411Z,7.26
2018-11-01T04:08:43.457Z,7.24
2018-11-01T04:09:43.403Z,7.19
2018-11-01T04:10:43.454Z,7.16
2018-11-01T04:11:43.516Z,7.16
2018-11-01T04:12:43.464Z,7.15
2018-11-01T04:13:43.789Z,7.15
2018-11-01T04:14:43.408Z,7.15
2018-11-01T04:15:43.471Z,7.16
2018-11-01T04:16:43.533Z,7.15
2018-11-01T04:17:43.412Z,7.16
2018-11-01T04:18:43.414Z,7.18
2018-11-01T04:19:43.436Z,7.16
2018-11-01T04:20:43.448Z,7.18
2018-11-01T04:21:43.397Z,7.19
2018-11-01T04:22:43.399Z,7.16
2018-11-01T04:23:43.375Z,7.16
2018-11-01T04:24:43.385Z,7.13
2018-11-01T04:25:43.898Z,7.12
2018-11-01T04:26:43.368Z,7.08
2018-11-01T04:27:43.566Z,7.09
2018-11-01T04:28:43.516Z,7.08
2018-11-01T04:29:43.376Z,7.05
2018-11-01T04:30:43.363Z,7.05
2018-11-01T04:31:43.409Z,7.03
2018-11-01T04:32:43.381Z,7.01
2018-11-01T04:33:44.211Z,6.99
2018-11-01T04:34:43.392Z,7.02
2018-11-01T04:35:43.375Z,7.01
2018-11-01T04:36:43.359Z,6.99
2018-11-01T04:37:43.429Z,6.94
2018-11-01T04:38:43.476Z,6.94
2018-11-01T04:39:43.432Z,6.91
2018-11-01T04:40:44.060Z,6.91
2018-11-01T04:41:43.496Z,6.94
2018-11-01T04:42:43.419Z,6.95
2018-11-01T04:43:43.367Z,6.94
2018-11-01T04:44:43.378Z,6.92
2018-11-01T04:45:43.359Z,6.96
2018-11-01T04:46:43.355Z,6.96
2018-11-01T04:47:44.059Z,6.96
2018-11-01T04:48:43.436Z,6.94
2018-11-01T04:49:43.739Z,6.98
2018-11-01T04:50:43.376Z,6.96
2018-11-01T04:51:43.363Z,6.99
2018-11-01T04:52:43.370Z,6.96
2018-11-01T04:53:43.330Z,6.95
2018-11-01T04:54:43.345Z,6.96
2018-11-01T04:55:43.370Z,6.94
2018-11-01T04:56:43.466Z,6.94
2018-11-01T04:57:43.369Z,6.95
2018-11-01T04:58:43.344Z,6.94
2018-11-01T04:59:43.420Z,6.94
2018-11-01T05:00:43.318Z,6.94
2018-11-01T05:01:43.383Z,6.9
2018-11-01T05:02:43.410Z,6.92
2018-11-01T05:03:43.486Z,6.85
2018-11-01T05:04:43.433Z,6.81
2018-11-01T05:05:43.331Z,6.84
2018-11-01T05:06:43.604Z,6.81
2018-11-01T05:07:43.337Z,6.83
2018-11-01T05:08:43.385Z,6.84
2018-11-01T05:09:43.316Z,6.83
2018-11-01T05:10:43.305Z,6.85
2018-11-01T05:11:43.319Z,6.85
2018-11-01T05:12:43.526Z,6.83
2018-11-01T05:13:43.385Z,6.83
2018-11-01T05:14:43.252Z,6.8
2018-11-01T05:15:43.504Z,6.77
2018-11-01T05:16:43.376Z,6.73
2018-11-01T05:17:43.609Z,6.7
2018-11-01T05:18:43.298Z,6.68
2018-11-01T05:19:43.281Z,6.63
2018-11-01T05:20:43.361Z,6.65
2018-11-01T05:21:43.329Z,6.61
2018-11-01T05:22:43.428Z,6.61
2018-11-01T05:23:43.285Z,6.58
2018-11-01T05:24:43.464Z,6.56
2018-11-01T05:25:43.667Z,6.58
2018-11-01T05:26:43.699Z,6.58
2018-11-01T05:27:43.360Z,6.58
2018-11-01T05:28:43.296Z,6.6
2018-11-01T05:29:43.309Z,6.6
2018-11-01T05:30:43.272Z,6.56
2018-11-01T05:31:43.294Z,6.56
2018-11-01T05:32:43.286Z,6.51
2018-11-01T05:33:43.318Z,6.46
2018-11-01T05:34:43.358Z,6.47
2018-11-01T05:35:43.316Z,6.46
2018-11-01T05:36:43.281Z,6.47
2018-11-01T05:37:43.411Z,6.48
2018-11-01T05:38:43.423Z,6.48
2018-11-01T05:39:43.275Z,6.48
2018-11-01T05:40:43.503Z,6.48
2018-11-01T05:41:43.296Z,6.47
2018-11-01T05:42:43.317Z,6.53
2018-11-01T05:43:43.289Z,6.54
2018-11-01T05:44:43.299Z,6.54
2018-11-01T05:45:43.357Z,6.56
2018-11-01T05:46:43.638Z,6.56
2018-11-01T05:47:43.260Z,6.54
2018-11-01T05:48:43.313Z,6.58
2018-11-01T05:49:43.476Z,6.54
2018-11-01T05:50:43.274Z,6.56
2018-11-01T05:51:43.313Z,6.51
2018-11-01T05:52:43.245Z,6.51
2018-11-01T05:53:43.295Z,6.51
2018-11-01T05:54:43.255Z,6.51
2018-11-01T05:55:43.341Z,6.53
2018-11-01T05:56:43.306Z,6.54
2018-11-01T05:57:43.249Z,6.5
2018-11-01T05:58:43.312Z,6.46
2018-11-01T05:59:43.490Z,6.35
2018-11-01T06:00:43.249Z,6.3
2018-11-01T06:01:43.246Z,6.2
2018-11-01T06:02:43.260Z,6.13
2018-11-01T06:03:43.304Z,6.02
2018-11-01T06:04:43.271Z,5.94
2018-11-01T06:05:43.560Z,5.91
2018-11-01T06:06:43.265Z,6
2018-11-01T06:07:43.252Z,6.02
2018-11-01T06:08:43.257Z,6.04
2018-11-01T06:09:43.294Z,6.08
2018-11-01T06:10:43.238Z,6.09
2018-11-01T06:11:43.235Z,6.13
2018-11-01T06:12:43.625Z,6.11
2018-11-01T06:13:43.257Z,6.16
2018-11-01T06:14:43.232Z,6.18
2018-11-01T06:15:43.246Z,6.09
2018-11-01T06:16:43.354Z,5.98
2018-11-01T06:17:43.286Z,5.97
2018-11-01T06:18:43.772Z,6.01
2018-11-01T06:19:43.278Z,6.06
2018-11-01T06:20:43.800Z,6.08
2018-11-01T06:21:43.213Z,6.12
2018-11-01T06:22:43.218Z,6.15
2018-11-01T06:23:43.237Z,6.19
2018-11-01T06:24:43.205Z,6.22
2018-11-01T06:25:43.581Z,6.23
2018-11-01T06:26:43.300Z,6.26
2018-11-01T06:27:43.306Z,6.23
2018-11-01T06:28:43.183Z,6.29
2018-11-01T06:29:43.243Z,6.33
2018-11-01T06:30:43.300Z,6.36
2018-11-01T06:31:43.223Z,6.37
2018-11-01T06:32:43.198Z,6.39
2018-11-01T06:33:43.221Z,6.39
2018-11-01T06:34:43.230Z,6.37
2018-11-01T06:35:43.184Z,6.28
2018-11-01T06:36:43.164Z,6.25
2018-11-01T06:37:43.224Z,6.18
2018-11-01T06:38:43.198Z,6.18
2018-11-01T06:39:43.203Z,6.2
2018-11-01T06:40:43.245Z,6.23
2018-11-01T06:41:43.424Z,6.26
2018-11-01T06:42:43.234Z,6.29
2018-11-01T06:43:43.559Z,6.29
2018-11-01T06:44:43.348Z,6.3
2018-11-01T06:45:43.266Z,6.33
2018-11-01T06:46:43.161Z,6.37
2018-11-01T06:47:43.171Z,6.32
2018-11-01T06:48:43.312Z,6.32
2018-11-01T06:49:43.172Z,6.32
2018-11-01T06:50:43.178Z,6.35
2018-11-01T06:51:43.222Z,6.35
2018-11-01T06:52:43.480Z,6.36
2018-11-01T06:53:43.162Z,6.37
2018-11-01T06:54:43.192Z,6.36
2018-11-01T06:55:43.507Z,6.26
2018-11-01T06:56:43.152Z,6.28
2018-11-01T06:57:43.171Z,6.28
2018-11-01T06:58:43.355Z,6.4
2018-11-01T06:59:43.203Z,6.53
2018-11-01T07:00:43.216Z,6.65
2018-11-01T07:01:43.171Z,6.85
2018-11-01T07:02:43.214Z,6.92
2018-11-01T07:03:43.196Z,7.02
2018-11-01T07:04:43.166Z,7.09
2018-11-01T07:05:43.414Z,7.15
2018-11-01T07:06:43.172Z,7.16
2018-11-01T07:07:43.796Z,7.15
2018-11-01T07:08:43.218Z,7.18
2018-11-01T07:09:43.564Z,7.18
2018-11-01T07:10:43.170Z,6.85
2018-11-01T07:11:43.152Z,6.83
2018-11-01T07:12:43.148Z,6.83
2018-11-01T07:13:43.220Z,6.75
2018-11-01T07:14:43.135Z,6.75
2018-11-01T07:15:43.143Z,6.73
2018-11-01T07:16:43.131Z,6.73
2018-11-01T07:17:43.543Z,6.73
2018-11-01T07:18:43.236Z,6.71
2018-11-01T07:19:43.132Z,6.73
2018-11-01T07:20:43.167Z,6.7
2018-11-01T07:21:43.216Z,6.73
2018-11-01T07:22:43.173Z,6.73
2018-11-01T07:23:43.140Z,6.74
2018-11-01T07:24:43.117Z,6.73
2018-11-01T07:25:43.255Z,6.71
2018-11-01T07:26:43.150Z,6.73
2018-11-01T07:27:43.114Z,6.7
2018-11-01T07:28:43.145Z,6.73
2018-11-01T07:29:43.117Z,6.73
2018-11-01T07:30:43.133Z,6.71
2018-11-01T07:31:43.126Z,6.7
2018-11-01T07:32:43.720Z,6.73
2018-11-01T07:33:43.191Z,6.74
2018-11-01T07:34:43.114Z,6.73
2018-11-01T07:35:43.107Z,6.74
2018-11-01T07:36:43.117Z,6.75
2018-11-01T07:37:43.120Z,6.77
2018-11-01T07:38:43.127Z,6.75
2018-11-01T07:39:43.328Z,6.77
2018-11-01T07:40:43.124Z,6.74
2018-11-01T07:41:43.103Z,6.74
2018-11-01T07:42:43.124Z,6.75
2018-11-01T07:43:43.146Z,6.78
2018-11-01T07:44:43.092Z,6.68
2018-11-01T07:45:43.159Z,6.65
2018-11-01T07:46:43.106Z,6.57
2018-11-01T07:47:43.213Z,6.61
2018-11-01T07:48:44.396Z,6.63
2018-11-01T07:49:43.105Z,6.65
2018-11-01T07:50:43.108Z,6.7
2018-11-01T07:51:43.219Z,6.65
2018-11-01T07:52:43.674Z,6.65
2018-11-01T07:53:43.159Z,6.7
2018-11-01T07:54:43.084Z,6.65
2018-11-01T07:55:43.087Z,6.68
2018-11-01T07:56:43.079Z,6.71
2018-11-01T07:57:43.114Z,6.64
2018-11-01T07:58:43.084Z,6.63
2018-11-01T07:59:43.113Z,6.64
2018-11-01T08:00:43.098Z,6.67
2018-11-01T08:01:43.116Z,6.71
2018-11-01T08:02:43.098Z,6.73
2018-11-01T08:03:43.090Z,6.75
2018-11-01T08:04:43.117Z,6.77
2018-11-01T08:05:43.226Z,6.77
2018-11-01T08:06:43.082Z,6.75
2018-11-01T08:07:43.122Z,6.81
2018-11-01T08:08:43.145Z,6.78
2018-11-01T08:09:43.299Z,6.81
2018-11-01T08:10:43.110Z,6.83
2018-11-01T08:11:43.275Z,6.81
2018-11-01T08:12:43.074Z,6.85
2018-11-01T08:13:43.112Z,6.88
2018-11-01T08:14:43.180Z,6.88
2018-11-01T08:15:43.238Z,6.9
2018-11-01T08:16:43.775Z,6.91
2018-11-01T08:17:43.055Z,6.9
2018-11-01T08:18:43.176Z,6.94
2018-11-01T08:19:43.562Z,6.92
2018-11-01T08:20:43.999Z,6.94
2018-11-01T08:21:43.186Z,6.95
2018-11-01T08:22:43.397Z,6.92
2018-11-01T08:23:43.068Z,6.91
2018-11-01T08:24:43.362Z,6.9
2018-11-01T08:25:43.099Z,6.84
2018-11-01T08:26:43.061Z,6.84
2018-11-01T08:27:43.131Z,6.88
2018-11-01T08:28:43.285Z,6.88
2018-11-01T08:29:43.136Z,6.88
2018-11-01T08:30:43.443Z,6.85
2018-11-01T08:31:43.080Z,6.87
2018-11-01T08:32:43.336Z,6.85
2018-11-01T08:33:43.270Z,6.87
2018-11-01T08:34:43.170Z,6.85
2018-11-01T08:35:43.131Z,6.87
2018-11-01T08:36:43.145Z,6.92
2018-11-01T08:37:43.067Z,6.95
2018-11-01T08:38:43.077Z,6.95
2018-11-01T08:39:43.072Z,6.98
2018-11-01T08:40:43.859Z,6.99
2018-11-01T08:41:43.044Z,6.99
2018-11-01T08:42:43.414Z,6.98
2018-11-01T08:43:43.101Z,7.02
2018-11-01T08:44:43.602Z,7.01
2018-11-01T08:45:43.110Z,7.03
2018-11-01T08:46:43.153Z,7.01
2018-11-01T08:47:43.473Z,7.02
2018-11-01T08:48:43.067Z,7.06
2018-11-01T08:49:43.052Z,7.05
2018-11-01T08:50:43.178Z,7.06
2018-11-01T08:51:43.083Z,7.03
2018-11-01T08:52:43.094Z,7.05
2018-11-01T08:53:43.103Z,7.09
2018-11-01T08:54:43.103Z,7.08
2018-11-01T08:55:43.426Z,7.08
2018-11-01T08:56:43.008Z,7.09
2018-11-01T08:57:43.405Z,7.08
2018-11-01T08:58:43.122Z,7.12
2018-11-01T08:59:43.055Z,7.12
2018-11-01T09:00:43.350Z,7.12
2018-11-01T09:01:43.055Z,7.12
2018-11-01T09:02:43.057Z,7.13
2018-11-01T09:03:43.131Z,7.15
2018-11-01T09:04:43.143Z,7.16
2018-11-01T09:05:43.126Z,7.15
2018-11-01T09:06:43.042Z,7.18
2018-11-01T09:07:44.296Z,7.15
2018-11-01T09:08:42.994Z,7.15
2018-11-01T09:09:43.292Z,7.18
2018-11-01T09:10:42.999Z,7.2
2018-11-01T09:11:43.527Z,7.22
2018-11-01T09:12:43.387Z,7.2
2018-11-01T09:13:43.033Z,7.19
2018-11-01T09:14:43.246Z,7.22
2018-11-01T09:15:43.186Z,7.23
2018-11-01T09:16:43.134Z,7.23
2018-11-01T09:17:43.237Z,7.24
2018-11-01T09:18:43.104Z,7.24
2018-11-01T09:19:43.068Z,7.26
2018-11-01T09:20:43.323Z,7.29
2018-11-01T09:21:43.369Z,7.3
2018-11-01T09:22:43.126Z,7.31
2018-11-01T09:23:43.366Z,7.33
2018-11-01T09:24:43.186Z,7.37
2018-11-01T09:25:43.033Z,7.36
2018-11-01T09:26:43.327Z,7.4
2018-11-01T09:27:43.012Z,7.36
2018-11-01T09:28:42.954Z,7.36
2018-11-01T09:29:42.984Z,7.36
2018-11-01T09:30:43.057Z,7.37
2018-11-01T09:31:43.165Z,7.39
2018-11-01T09:32:43.145Z,7.4
2018-11-01T09:33:42.987Z,7.43
2018-11-01T09:34:42.992Z,7.39
2018-11-01T09:35:43.309Z,7.43
2018-11-01T09:36:43.019Z,7.41
2018-11-01T09:37:43.058Z,7.47
2018-11-01T09:38:42.923Z,7.44
2018-11-01T09:39:42.976Z,7.46
2018-11-01T09:40:43.036Z,7.41
2018-11-01T09:41:43.078Z,7.44
2018-11-01T09:42:43.061Z,7.44
2018-11-01T09:43:42.925Z,7.46
2018-11-01T09:44:42.963Z,7.47
2018-11-01T09:45:43.064Z,7.46
2018-11-01T09:46:44.748Z,7.46
2018-11-01T09:48:43.179Z,7.48
2018-11-01T09:49:42.922Z,7.5
2018-11-01T09:50:43.041Z,7.51
2018-11-01T09:51:42.972Z,7.53
2018-11-01T09:52:42.906Z,7.53
2018-11-01T09:53:43.052Z,7.54
2018-11-01T09:54:43.346Z,7.57
2018-11-01T09:55:43.703Z,7.57
2018-11-01T09:56:42.913Z,7.58
2018-11-01T09:57:42.997Z,7.57
2018-11-01T09:58:43.772Z,7.58
2018-11-01T09:59:43.144Z,7.59
2018-11-01T10:00:43.000Z,7.64
2018-11-01T10:01:43.133Z,7.61
2018-11-01T10:02:42.985Z,7.59
2018-11-01T10:03:43.148Z,7.62
2018-11-01T10:04:43.156Z,7.62
2018-11-01T10:05:43.164Z,7.64
2018-11-01T10:06:43.245Z,7.67
2018-11-01T10:07:43.089Z,7.65
2018-11-01T10:08:43.077Z,7.65
2018-11-01T10:09:43.086Z,7.67
2018-11-01T10:10:42.989Z,7.67
2018-11-01T10:11:42.915Z,7.68
2018-11-01T10:12:43.014Z,7.68
2018-11-01T10:13:43.035Z,7.72
2018-11-01T10:14:42.862Z,7.74
2018-11-01T10:15:44.148Z,7.78
2018-11-01T10:16:44.361Z,7.82
2018-11-01T10:17:45.411Z,7.84
2018-11-01T10:18:43.558Z,7.89
2018-11-01T10:19:43.005Z,7.91
2018-11-01T10:20:43.063Z,7.92
2018-11-01T10:21:43.480Z,7.95
2018-11-01T10:22:43.867Z,7.98
2018-11-01T10:23:43.158Z,7.98
2018-11-01T10:24:43.282Z,8.01
2018-11-01T10:25:43.370Z,7.99
2018-11-01T10:26:43.427Z,8.02
2018-11-01T10:27:44.204Z,8.05
2018-11-01T10:28:42.881Z,8.05
2018-11-01T10:29:43.036Z,8.06
2018-11-01T10:30:43.228Z,8.03
2018-11-01T10:31:42.977Z,8.01
2018-11-01T10:32:42.860Z,8.03
2018-11-01T10:33:43.126Z,8.06
2018-11-01T10:34:43.623Z,8.08
2018-11-01T10:35:42.904Z,8.08
2018-11-01T10:36:46.160Z,8.06
2018-11-01T10:37:43.496Z,8.06
2018-11-01T10:38:43.002Z,8.08
2018-11-01T10:39:42.858Z,8.08
2018-11-01T10:40:43.184Z,8.1
2018-11-01T10:41:44.562Z,8.08
2018-11-01T10:42:43.227Z,8.05
2018-11-01T10:43:43.468Z,8.06
2018-11-01T10:44:43.610Z,8.06
2018-11-01T10:45:43.157Z,8.1
2018-11-01T10:46:43.146Z,8.03
2018-11-01T10:47:43.514Z,7.99
2018-11-01T10:48:43.161Z,7.98
2018-11-01T10:49:42.913Z,7.98
2018-11-01T10:50:45.236Z,7.98
2018-11-01T10:51:43.139Z,8.01
2018-11-01T10:52:42.961Z,8.03
2018-11-01T10:53:43.436Z,8.1
2018-11-01T10:54:42.908Z,8.14
2018-11-01T10:55:43.230Z,8.23
2018-11-01T10:56:42.807Z,8.26
2018-11-01T10:57:42.829Z,8.31
2018-11-01T10:58:43.151Z,8.38
2018-11-01T10:59:42.983Z,8.45
2018-11-01T11:00:45.788Z,8.49
2018-11-01T11:01:42.875Z,8.52
2018-11-01T11:02:43.241Z,8.54
2018-11-01T11:03:43.163Z,8.58
2018-11-01T11:04:43.157Z,8.59
2018-11-01T11:05:42.812Z,8.62
2018-11-01T11:06:42.986Z,8.58
2018-11-01T11:07:42.855Z,8.45
2018-11-01T11:08:42.897Z,8.47
2018-11-01T11:09:43.215Z,8.45
2018-11-01T11:10:42.997Z,8.49
2018-11-01T11:11:43.187Z,8.52
2018-11-01T11:12:43.124Z,8.58
2018-11-01T11:13:42.872Z,8.64
2018-11-01T11:14:42.943Z,8.65
2018-11-01T11:15:42.972Z,8.68
2018-11-01T11:16:42.819Z,8.72
2018-11-01T11:17:42.770Z,8.72
2018-11-01T11:18:43.196Z,8.75
2018-11-01T11:19:42.810Z,8.8
2018-11-01T11:20:44.610Z,8.8
2018-11-01T11:21:43.159Z,8.85
2018-11-01T11:22:42.924Z,8.86
2018-11-01T11:23:44.102Z,8.89
2018-11-01T11:24:42.810Z,8.88
2018-11-01T11:25:42.867Z,8.88
2018-11-01T11:26:42.790Z,8.95
2018-11-01T11:27:43.130Z,8.93
2018-11-01T11:28:42.777Z,8.95
2018-11-01T11:29:42.806Z,8.96
2018-11-01T11:30:56.203Z,8.98
2018-11-01T11:32:42.799Z,8.99
2018-11-01T11:33:42.947Z,8.99
2018-11-01T11:34:42.984Z,9
2018-11-01T11:35:43.325Z,9
2018-11-01T11:36:42.792Z,8.93
2018-11-01T11:37:42.968Z,8.95
2018-11-01T11:38:42.863Z,8.93
2018-11-01T11:39:45.684Z,8.91
2018-11-01T11:40:43.144Z,8.92
2018-11-01T11:41:44.262Z,8.93
2018-11-01T11:42:43.091Z,8.95
2018-11-01T11:43:42.787Z,8.95
2018-11-01T11:44:42.931Z,8.96
2018-11-01T11:45:43.372Z,8.92
2018-11-01T11:46:42.785Z,8.98
2018-11-01T11:47:43.877Z,8.98
2018-11-01T11:48:51.420Z,8.96
2018-11-01T11:49:46.345Z,9
2018-11-01T11:50:42.888Z,9
2018-11-01T11:51:42.986Z,9.02
2018-11-01T11:52:42.753Z,9.04
2018-11-01T11:53:43.166Z,9.06
2018-11-01T11:54:45.706Z,9.09
2018-11-01T11:55:42.951Z,9.11
2018-11-01T11:56:42.840Z,9.1
2018-11-01T11:57:42.975Z,9.11
2018-11-01T11:58:42.778Z,9.14
2018-11-01T11:59:42.774Z,9.16
2018-11-01T12:00:43.155Z,9.16
2018-11-01T12:01:42.891Z,9.16
2018-11-01T12:02:43.062Z,9.16
2018-11-01T12:03:42.767Z,9.16
2018-11-01T12:04:42.829Z,9.17
2018-11-01T12:05:43.169Z,9.2
2018-11-01T12:06:43.006Z,9.2
2018-11-01T12:07:43.123Z,9.21
2018-11-01T12:08:43.221Z,9.24
2018-11-01T12:09:42.978Z,9.24
2018-11-01T12:10:42.783Z,9.29
2018-11-01T12:11:42.740Z,9.27
2018-11-01T12:12:43.079Z,9.34
2018-11-01T12:13:42.960Z,9.35
2018-11-01T12:14:42.768Z,9.35
2018-11-01T12:15:42.713Z,9.38
2018-11-01T12:16:42.713Z,9.42
2018-11-01T12:17:42.715Z,9.44
2018-11-01T12:18:42.789Z,9.47
2018-11-01T12:19:42.703Z,9.47
2018-11-01T12:20:42.709Z,9.48
2018-11-01T12:21:42.723Z,9.49
2018-11-01T12:22:42.763Z,9.51
2018-11-01T12:23:43.112Z,9.49
2018-11-01T12:24:42.764Z,9.55
2018-11-01T12:25:42.898Z,9.59
2018-11-01T12:26:43.080Z,9.58
2018-11-01T12:27:42.950Z,9.62
2018-11-01T12:28:43.599Z,9.62
2018-11-01T12:29:42.777Z,9.62
2018-11-01T12:30:42.677Z,9.63
2018-11-01T12:31:42.686Z,9.63
2018-11-01T12:32:42.694Z,9.65
2018-11-01T12:33:43.054Z,9.66
2018-11-01T12:34:42.760Z,9.68
2018-11-01T12:35:43.231Z,9.7
2018-11-01T12:36:42.680Z,9.72
2018-11-01T12:37:42.715Z,9.72
2018-11-01T12:38:42.680Z,9.75
2018-11-01T12:39:42.787Z,9.75
2018-11-01T12:40:42.697Z,9.75
2018-11-01T12:41:43.239Z,9.78
2018-11-01T12:42:42.714Z,9.79
2018-11-01T12:43:42.696Z,9.81
2018-11-01T12:44:42.703Z,9.82
2018-11-01T12:45:42.680Z,9.82
2018-11-01T12:46:42.986Z,9.83
2018-11-01T12:47:42.667Z,9.83
2018-11-01T12:48:42.697Z,9.88
2018-11-01T12:49:43.086Z,9.85
2018-11-01T12:50:42.817Z,9.85
2018-11-01T12:51:42.658Z,9.86
2018-11-01T12:52:42.884Z,9.89
2018-11-01T12:53:42.633Z,9.88
2018-11-01T12:54:42.702Z,9.9
2018-11-01T12:55:43.049Z,9.9
2018-11-01T12:56:42.662Z,9.92
2018-11-01T12:57:42.709Z,9.96
2018-11-01T12:58:42.733Z,9.96
2018-11-01T12:59:42.657Z,10
2018-11-01T13:00:42.695Z,10.06
2018-11-01T13:01:42.657Z,10.09
2018-11-01T13:02:43.593Z,10.16
2018-11-01T13:03:43.008Z,10.21
2018-11-01T13:04:42.661Z,10.24
2018-11-01T13:05:42.949Z,10.27
2018-11-01T13:06:43.058Z,10.31
2018-11-01T13:07:42.693Z,10.34
2018-11-01T13:08:42.687Z,10.42
2018-11-01T13:09:42.755Z,10.45
2018-11-01T13:10:43.000Z,10.48
2018-11-01T13:11:42.662Z,10.52
2018-11-01T13:12:42.661Z,10.61
2018-11-01T13:13:42.686Z,10.69
2018-11-01T13:14:43.043Z,10.72
2018-11-01T13:15:42.746Z,10.73
2018-11-01T13:16:42.779Z,10.8
2018-11-01T13:17:42.758Z,10.86
2018-11-01T13:18:42.644Z,10.87
2018-11-01T13:19:42.946Z,10.89
2018-11-01T13:20:43.239Z,10.92
2018-11-01T13:21:42.699Z,10.9
2018-11-01T13:22:42.685Z,10.94